Time;durP1;ratioP1;P1;durP2;ratioP2;P2;SDS_P1;SDS_P2;PMS_P1;PMS_P2;Temp;Humidity;BMP_temperature;BMP_pressure;BME280_temperature;BME280_humidity;BME280_pressure;Samples;Min_cycle;Max_cycle;Signal;HPM_P1;HPM_P2
2022/12/13 00:01:21;;;;;;;37.17;24.13;;;;;;;-5.45;100.00;96046.94;5074854;28;20280;-70
2022/12/13 00:03:46;;;;;;;39.57;24.00;;;;;;;-5.43;100.00;96039.13;5075678;28;20258;-70
2022/12/13 00:06:12;;;;;;;38.63;24.23;;;;;;;-5.52;100.00;96035.72;5044392;28;20186;-71
2022/12/13 00:08:38;;;;;;;39.40;23.53;;;;;;;-5.43;100.00;96039.94;5055734;28;20186;-71
2022/12/13 00:11:06;;;;;;;36.37;23.93;;;;;;;-5.51;100.00;96029.66;5066601;28;20591;-71
2022/12/13 00:13:32;;;;;;;38.67;24.03;;;;;;;-5.58;100.00;96034.56;5061289;28;20262;-71
2022/12/13 00:16:00;;;;;;;37.77;24.27;;;;;;;-5.57;100.00;96038.69;5039455;28;20182;-76
2022/12/13 00:18:26;;;;;;;39.33;23.83;;;;;;;-5.60;100.00;96033.09;5074872;28;20180;-69
2022/12/13 00:20:51;;;;;;;40.97;23.57;;;;;;;-5.54;100.00;96035.84;5069179;28;20197;-76
2022/12/13 00:23:18;;;;;;;41.30;24.70;;;;;;;-5.54;100.00;96033.31;5056089;28;20206;-71
2022/12/13 00:25:43;;;;;;;34.27;21.43;;;;;;;-5.65;100.00;96025.88;5038228;28;20190;-71
2022/12/13 00:28:09;;;;;;;37.83;23.03;;;;;;;-5.64;100.00;96030.03;5065861;28;20515;-71
2022/12/13 00:30:34;;;;;;;46.33;23.77;;;;;;;-5.59;100.00;96034.69;5060614;28;20195;-69
2022/12/13 00:33:00;;;;;;;39.17;23.17;;;;;;;-5.52;100.00;96028.84;5056328;28;20181;-69
2022/12/13 00:35:26;;;;;;;36.47;23.60;;;;;;;-5.42;100.00;96027.97;5072450;28;20235;-71
2022/12/13 00:37:54;;;;;;;33.50;22.23;;;;;;;-5.50;100.00;96028.69;5061909;28;20196;-73
2022/12/13 00:40:20;;;;;;;41.87;24.73;;;;;;;-5.48;100.00;96026.81;5051216;28;20185;-72
2022/12/13 00:42:45;;;;;;;42.67;24.40;;;;;;;-5.55;100.00;96023.25;5075562;28;20230;-72
2022/12/13 00:45:11;;;;;;;43.30;24.30;;;;;;;-5.53;100.00;96018.78;5057645;28;20241;-70
2022/12/13 00:47:37;;;;;;;37.43;23.77;;;;;;;-5.57;100.00;96020.00;5054451;28;20232;-72
2022/12/13 00:50:04;;;;;;;35.30;22.37;;;;;;;-5.49;100.00;96017.53;5054038;28;20570;-71
2022/12/13 00:52:29;;;;;;;37.90;23.90;;;;;;;-5.42;100.00;96015.22;5053676;28;20185;-72
2022/12/13 00:54:54;;;;;;;40.80;24.87;;;;;;;-5.46;100.00;96007.84;5073751;28;20189;-71
2022/12/13 00:57:20;;;;;;;37.63;23.10;;;;;;;-5.51;100.00;95997.28;5055672;28;20199;-71
2022/12/13 00:59:45;;;;;;;41.00;25.40;;;;;;;-5.59;100.00;95996.41;5063127;28;20276;-71
2022/12/13 01:02:11;;;;;;;40.13;26.53;;;;;;;-5.61;100.00;95991.44;5058506;28;20190;-71
2022/12/13 01:04:36;;;;;;;42.10;26.80;;;;;;;-5.63;100.00;95987.44;5053951;28;20202;-71
2022/12/13 01:07:01;;;;;;;39.47;25.93;;;;;;;-5.70;100.00;95992.34;5053420;28;20261;-72
2022/12/13 01:09:29;;;;;;;39.80;25.00;;;;;;;-5.71;100.00;95987.38;5070101;28;20177;-71
2022/12/13 01:11:57;;;;;;;38.80;25.40;;;;;;;-5.71;100.00;95979.72;5069683;28;20216;-71
2022/12/13 01:14:22;;;;;;;39.03;23.30;;;;;;;-5.77;100.00;95982.84;5061097;28;20188;-71
2022/12/13 01:16:47;;;;;;;40.53;25.77;;;;;;;-5.66;100.00;95990.28;5073047;28;20209;-71
2022/12/13 01:19:13;;;;;;;37.10;24.57;;;;;;;-5.71;100.00;95987.38;5064317;28;20173;-71
2022/12/13 01:21:38;;;;;;;42.97;25.43;;;;;;;-5.80;100.00;95988.25;5044899;28;20190;-71
2022/12/13 01:24:05;;;;;;;41.00;25.90;;;;;;;-6.00;100.00;95988.41;5064855;28;20635;-71
2022/12/13 01:26:31;;;;;;;43.23;25.17;;;;;;;-5.93;100.00;95996.28;5072720;28;20181;-71
2022/12/13 01:28:57;;;;;;;43.03;24.87;;;;;;;-5.89;100.00;95997.59;5054358;28;20201;-71
2022/12/13 01:31:23;;;;;;;40.07;22.70;;;;;;;-5.91;100.00;95996.94;5053666;28;20193;-71
2022/12/13 01:33:49;;;;;;;42.60;24.83;;;;;;;-5.92;100.00;96001.25;5053349;28;20252;-72
2022/12/13 01:36:17;;;;;;;38.63;24.83;;;;;;;-5.87;100.00;95996.47;5060647;28;20181;-71
2022/12/13 01:38:42;;;;;;;38.40;24.47;;;;;;;-6.03;100.00;95990.44;5065759;28;20180;-71
2022/12/13 01:41:13;;;;;;;35.87;23.23;;;;;;;-6.08;100.00;96001.09;5066785;28;20546;-71
2022/12/13 01:43:39;;;;;;;38.20;23.47;;;;;;;-6.09;100.00;95999.47;5072684;28;20198;-71
2022/12/13 01:46:05;;;;;;;35.83;22.50;;;;;;;-6.10;100.00;95994.50;5072512;28;20196;-71
2022/12/13 01:48:35;;;;;;;37.47;22.67;;;;;;;-5.94;100.00;95989.56;5072003;28;20716;-72
2022/12/13 01:51:04;;;;;;;36.00;22.27;;;;;;;-6.02;100.00;95984.41;5072429;28;20234;-71
2022/12/13 01:53:34;;;;;;;38.17;22.87;;;;;;;-5.88;100.00;95981.34;5053476;28;20612;-71
2022/12/13 01:56:05;;;;;;;37.17;22.63;;;;;;;-6.01;100.00;95984.25;5052842;28;20186;-71
2022/12/13 01:58:30;;;;;;;36.70;22.33;;;;;;;-6.01;100.00;95980.88;5055534;28;20193;-71
2022/12/13 02:00:58;;;;;;;38.03;23.57;;;;;;;-6.02;100.00;95980.09;5052338;28;20200;-71
2022/12/13 02:03:24;;;;;;;37.17;22.27;;;;;;;-5.95;100.00;95978.56;5063706;28;20288;-71
2022/12/13 02:05:58;;;;;;;36.70;23.80;;;;;;;-6.07;100.00;95979.72;5050841;28;20221;-71
2022/12/13 02:08:24;;;;;;;33.17;21.57;;;;;;;-6.11;100.00;95975.06;5061073;28;20177;-72
2022/12/13 02:10:50;;;;;;;35.23;24.07;;;;;;;-6.27;100.00;95965.50;5060368;28;20197;-71
2022/12/13 02:13:16;;;;;;;37.23;22.77;;;;;;;-6.20;100.00;95975.94;5068009;28;20189;-71
2022/12/13 02:16:07;;;;;;;36.43;21.90;;;;;;;-6.26;100.00;95971.41;5070773;28;20511;-71
2022/12/13 02:19:10;;;;;;;35.57;21.43;;;;;;;-6.22;100.00;95958.22;5072723;28;20173;-72
2022/12/13 02:22:20;;;;;;;31.47;22.00;;;;;;;-6.33;100.00;95964.31;5070624;28;20180;-71
2022/12/13 02:25:02;;;;;;;34.07;20.40;;;;;;;-6.32;100.00;95962.56;5049675;28;20228;-73
2022/12/13 02:27:28;;;;;;;29.77;19.20;;;;;;;-6.35;100.00;95956.00;5072608;28;20583;-71
2022/12/13 02:30:15;;;;;;;32.27;21.93;;;;;;;-6.26;100.00;95946.72;5054611;28;20681;-71
2022/12/13 02:32:56;;;;;;;34.73;21.60;;;;;;;-6.31;100.00;95959.88;5064641;28;20182;-72
2022/12/13 02:35:33;;;;;;;35.43;21.57;;;;;;;-6.35;100.00;95956.00;5034972;28;20185;-72
2022/12/13 02:38:07;;;;;;;38.13;21.70;;;;;;;-6.30;100.00;95955.59;5069045;28;20177;-71
2022/12/13 02:40:49;;;;;;;33.17;21.03;;;;;;;-6.29;100.00;95959.72;5068742;28;20181;-71
2022/12/13 02:43:31;;;;;;;33.23;20.90;;;;;;;-6.26;100.00;95953.56;5052525;28;20202;-71
2022/12/13 02:46:01;;;;;;;28.90;19.30;;;;;;;-6.27;100.00;95947.66;5052552;28;20335;-71
2022/12/13 02:48:31;;;;;;;34.20;20.30;;;;;;;-6.27;100.00;95937.44;5054864;28;20580;-71
2022/12/13 02:50:59;;;;;;;34.80;19.33;;;;;;;-6.22;100.00;95944.66;5066093;28;20533;-71
2022/12/13 02:53:25;;;;;;;32.40;21.07;;;;;;;-6.24;100.00;95949.13;5034072;28;20181;-71
2022/12/13 02:55:51;;;;;;;28.13;19.83;;;;;;;-6.19;100.00;95946.94;5065755;28;20583;-71
2022/12/13 02:58:22;;;;;;;31.17;21.07;;;;;;;-6.20;100.00;95956.34;5071605;28;20192;-72
2022/12/13 03:01:15;;;;;;;33.43;20.33;;;;;;;-6.13;100.00;95951.47;5060215;28;20641;-71
2022/12/13 03:04:11;;;;;;;28.20;18.23;;;;;;;-6.09;100.00;95943.38;5075264;28;20285;-72
2022/12/13 03:06:56;;;;;;;25.30;16.57;;;;;;;-6.12;100.00;95948.75;5056919;28;20175;-72
2022/12/13 03:09:25;;;;;;;30.27;17.60;;;;;;;-6.14;100.00;95947.31;5059341;28;20169;-72
2022/12/13 03:15:00;;;;;;;24.67;16.53;;;;;;;-6.24;100.00;95932.06;5075723;28;20223;-71
2022/12/13 03:17:29;;;;;;;23.43;15.53;;;;;;;-6.24;100.00;95928.72;5072255;28;20253;-71
2022/12/13 03:19:55;;;;;;;28.53;18.13;;;;;;;-6.16;100.00;95924.50;5056092;28;20186;-72
2022/12/13 03:22:20;;;;;;;26.83;16.90;;;;;;;-6.18;100.00;95920.47;5038176;28;20198;-71
2022/12/13 03:24:45;;;;;;;25.27;15.67;;;;;;;-6.28;100.00;95910.34;5059275;28;20205;-71
2022/12/13 03:27:12;;;;;;;24.67;15.83;;;;;;;-6.31;100.00;95919.09;5075557;28;20185;-71
2022/12/13 03:29:38;;;;;;;25.03;16.77;;;;;;;-6.23;100.00;95917.56;5075906;28;20217;-72
2022/12/13 03:32:03;;;;;;;25.40;17.57;;;;;;;-6.27;100.00;95923.91;5076022;28;20209;-72
2022/12/13 03:34:28;;;;;;;26.43;17.63;;;;;;;-6.23;100.00;95927.75;5040907;28;20186;-71
2022/12/13 03:36:54;;;;;;;30.03;17.80;;;;;;;-6.25;100.00;95930.47;5074388;28;20698;-72
2022/12/13 03:39:21;;;;;;;24.47;16.97;;;;;;;-6.25;100.00;95919.47;5068705;28;20513;-71
2022/12/13 03:41:47;;;;;;;26.77;16.37;;;;;;;-6.32;100.00;95922.59;5055351;28;20185;-72
2022/12/13 03:44:12;;;;;;;28.17;16.47;;;;;;;-6.33;100.00;95910.00;5036101;28;20250;-72
2022/12/13 03:46:38;;;;;;;32.47;16.70;;;;;;;-6.38;100.00;95914.72;5057660;28;20186;-71
2022/12/13 03:49:03;;;;;;;28.57;16.27;;;;;;;-6.38;100.00;95915.53;5059847;28;20229;-72
2022/12/13 03:51:28;;;;;;;23.07;15.10;;;;;;;-6.39;100.00;95924.09;5056997;28;20186;-71
2022/12/13 03:53:54;;;;;;;24.73;16.10;;;;;;;-6.30;100.00;95919.91;5063332;28;20192;-71
2022/12/13 03:56:19;;;;;;;23.17;15.50;;;;;;;-6.36;100.00;95907.75;5069868;28;20557;-71
2022/12/13 03:58:44;;;;;;;24.90;16.80;;;;;;;-6.44;100.00;95908.44;5057123;28;20185;-71
2022/12/13 04:01:12;;;;;;;21.23;16.67;;;;;;;-6.40;100.00;95901.31;5060240;28;20181;-71
2022/12/13 04:03:39;;;;;;;22.20;16.80;;;;;;;-6.44;100.00;95905.09;5065661;28;20202;-71
2022/12/13 04:06:06;;;;;;;25.57;17.13;;;;;;;-6.39;100.00;95906.25;5037097;28;20191;-71
2022/12/13 04:08:31;;;;;;;20.57;13.87;;;;;;;-6.41;100.00;95900.50;5070974;28;20235;-71
2022/12/13 04:10:57;;;;;;;24.47;18.17;;;;;;;-6.44;100.00;95900.00;5054296;28;20648;-71
2022/12/13 04:13:31;;;;;;;23.87;16.83;;;;;;;-6.47;100.00;95900.31;5061873;28;20196;-71
2022/12/13 04:15:57;;;;;;;21.90;16.37;;;;;;;-6.46;100.00;95902.69;5074678;28;20180;-71
2022/12/13 04:18:22;;;;;;;21.67;14.23;;;;;;;-6.46;100.00;95896.78;5059776;28;20186;-72
2022/12/13 04:20:48;;;;;;;21.80;14.67;;;;;;;-6.48;100.00;95898.69;5069815;28;20178;-71
2022/12/13 04:23:13;;;;;;;24.37;15.10;;;;;;;-6.55;100.00;95892.56;5074325;28;20173;-71
2022/12/13 04:25:39;;;;;;;21.93;14.90;;;;;;;-6.47;100.00;95901.09;5055662;28;20186;-71
2022/12/13 04:28:06;;;;;;;23.50;16.17;;;;;;;-6.48;100.00;95899.50;5060599;28;20677;-71
2022/12/13 04:30:32;;;;;;;27.73;15.93;;;;;;;-6.43;100.00;95902.41;5064243;28;20505;-71
2022/12/13 04:32:57;;;;;;;22.97;16.43;;;;;;;-6.47;100.00;95907.94;5070578;28;20186;-71
2022/12/13 04:35:23;;;;;;;22.27;15.53;;;;;;;-6.46;100.00;95899.31;5072645;28;20192;-72
2022/12/13 04:37:48;;;;;;;22.73;16.03;;;;;;;-6.48;100.00;95898.69;5058126;28;20581;-71
2022/12/13 04:40:14;;;;;;;22.57;15.97;;;;;;;-6.44;100.00;95903.34;5074252;28;20189;-71
2022/12/13 04:42:40;;;;;;;16.77;13.50;;;;;;;-6.46;100.00;95899.31;5060409;28;20665;-71
2022/12/13 04:45:06;;;;;;;23.47;14.90;;;;;;;-6.47;100.00;95898.56;5054227;28;20210;-71
2022/12/13 04:47:31;;;;;;;21.20;15.07;;;;;;;-6.38;100.00;95901.97;5058570;28;20322;-71
2022/12/13 04:49:56;;;;;;;22.20;15.33;;;;;;;-6.42;100.00;95903.22;5065321;28;20695;-71
2022/12/13 04:52:22;;;;;;;21.77;15.00;;;;;;;-6.47;100.00;95896.00;5054002;28;20181;-71
2022/12/13 04:54:47;;;;;;;23.83;16.17;;;;;;;-6.41;100.00;95894.63;5053625;28;20213;-72
2022/12/13 04:57:12;;;;;;;24.33;15.70;;;;;;;-6.48;100.00;95893.59;5053577;28;20182;-71
2022/12/13 04:59:38;;;;;;;24.07;15.63;;;;;;;-6.45;100.00;95891.53;5059038;28;20193;-71
2022/12/13 05:02:05;;;;;;;20.50;14.70;;;;;;;-6.49;100.00;95892.78;5055618;28;20239;-74
2022/12/13 05:04:31;;;;;;;21.23;14.33;;;;;;;-6.46;100.00;95892.50;5073569;28;20185;-71
2022/12/13 05:06:56;;;;;;;20.83;14.40;;;;;;;-6.48;100.00;95896.13;5057481;28;20235;-73
2022/12/13 05:09:22;;;;;;;19.97;13.37;;;;;;;-6.48;100.00;95888.50;5054270;28;20672;-73
2022/12/13 05:11:48;;;;;;;21.00;14.20;;;;;;;-6.47;100.00;95890.91;5057590;28;20177;-72
2022/12/13 05:14:13;;;;;;;22.53;15.47;;;;;;;-6.50;100.00;95887.81;5062736;28;20582;-72
2022/12/13 05:16:38;;;;;;;20.10;13.63;;;;;;;-6.46;100.00;95892.50;5073369;28;20626;-72
2022/12/13 05:19:04;;;;;;;26.20;15.20;;;;;;;-6.49;100.00;95887.69;5039787;28;20178;-71
2022/12/13 05:21:29;;;;;;;21.07;15.43;;;;;;;-6.45;100.00;95885.66;5053684;28;20186;-72
2022/12/13 05:23:54;;;;;;;22.30;15.03;;;;;;;-6.52;100.00;95898.16;5053326;28;20243;-72
2022/12/13 05:26:20;;;;;;;22.63;15.00;;;;;;;-6.54;100.00;95891.63;5065722;28;20189;-72
2022/12/13 05:28:45;;;;;;;21.77;15.17;;;;;;;-6.56;100.00;95886.66;5055123;28;20235;-72
2022/12/13 05:31:11;;;;;;;22.43;16.33;;;;;;;-6.48;100.00;95885.94;5036399;28;20252;-71
2022/12/13 05:33:37;;;;;;;25.07;15.27;;;;;;;-6.55;100.00;95890.81;5053524;28;20239;-71
2022/12/13 05:36:04;;;;;;;23.60;15.13;;;;;;;-6.63;100.00;95890.72;5066479;28;20642;-71
2022/12/13 05:38:30;;;;;;;23.53;15.50;;;;;;;-6.65;100.00;95890.06;5071158;28;20535;-71
2022/12/13 05:40:55;;;;;;;26.57;15.63;;;;;;;-6.58;100.00;95890.31;5057667;28;20193;-71
2022/12/13 05:43:22;;;;;;;24.00;14.97;;;;;;;-6.58;100.00;95888.56;5055482;28;20189;-73
2022/12/13 05:45:48;;;;;;;23.00;15.10;;;;;;;-6.63;100.00;95877.97;5062196;28;20190;-72
2022/12/13 05:48:13;;;;;;;21.43;15.43;;;;;;;-6.62;100.00;95874.50;5035015;28;20861;-71
2022/12/13 05:50:39;;;;;;;24.87;16.50;;;;;;;-6.62;100.00;95868.59;5052677;28;20687;-72
2022/12/13 05:53:05;;;;;;;22.13;15.13;;;;;;;-6.62;100.00;95874.50;5053054;28;20697;-72
2022/12/13 05:55:30;;;;;;;19.50;14.47;;;;;;;-6.57;100.00;95877.41;5053151;28;20713;-75
2022/12/13 05:57:57;;;;;;;19.40;14.23;;;;;;;-6.64;100.00;95871.31;5052776;28;20193;-72
2022/12/13 06:00:22;;;;;;;22.40;15.97;;;;;;;-6.68;100.00;95874.25;5052178;28;20267;-72
2022/12/13 06:02:48;;;;;;;21.70;15.83;;;;;;;-6.69;100.00;95862.47;5052648;28;20270;-72
2022/12/13 06:05:13;;;;;;;20.73;15.87;;;;;;;-6.62;100.00;95864.28;5052416;28;20209;-72
2022/12/13 06:07:38;;;;;;;22.43;15.93;;;;;;;-6.73;100.00;95867.03;5052420;28;20186;-72
2022/12/13 06:10:05;;;;;;;22.00;16.23;;;;;;;-6.72;100.00;95871.19;5066611;28;20262;-72
2022/12/13 06:12:32;;;;;;;21.40;14.80;;;;;;;-6.76;100.00;95875.00;5052711;28;20205;-72
2022/12/13 06:14:58;;;;;;;21.23;16.53;;;;;;;-6.79;100.00;95873.50;5051960;28;20272;-72
2022/12/13 06:17:24;;;;;;;22.50;17.63;;;;;;;-6.78;100.00;95870.03;5052239;28;20661;-72
2022/12/13 06:19:52;;;;;;;33.60;30.40;;;;;;;-6.77;100.00;95874.19;5034151;28;20630;-72
2022/12/13 06:22:17;;;;;;;31.40;28.37;;;;;;;-6.75;100.00;95877.41;5052384;28;20190;-72
2022/12/13 06:24:43;;;;;;;18.33;15.23;;;;;;;-6.75;100.00;95872.31;5052037;28;20220;-72
2022/12/13 06:27:08;;;;;;;18.83;14.07;;;;;;;-6.72;100.00;95878.84;5052206;28;20284;-72
2022/12/13 06:29:34;;;;;;;16.77;13.63;;;;;;;-6.71;100.00;95875.34;5052326;28;20190;-73
2022/12/13 06:32:01;;;;;;;20.80;13.67;;;;;;;-6.72;100.00;95868.66;5051939;28;20194;-72
2022/12/13 06:34:26;;;;;;;16.97;12.63;;;;;;;-6.72;100.00;95856.72;5035652;28;20194;-72
2022/12/13 06:36:52;;;;;;;18.07;12.77;;;;;;;-6.75;100.00;95864.66;5056534;28;20255;-74
2022/12/13 06:39:17;;;;;;;17.77;13.57;;;;;;;-6.75;100.00;95868.94;5056435;28;20182;-71
2022/12/13 06:41:43;;;;;;;19.93;13.57;;;;;;;-6.75;100.00;95859.56;5056154;28;20196;-72
2022/12/13 06:44:08;;;;;;;15.63;12.53;;;;;;;-6.77;100.00;95871.63;5056285;28;20721;-72
2022/12/13 06:46:34;;;;;;;18.80;12.60;;;;;;;-6.76;100.00;95859.69;5056131;28;20266;-72
2022/12/13 06:49:00;;;;;;;18.37;13.73;;;;;;;-6.78;100.00;95867.47;5038367;28;20264;-72
2022/12/13 06:51:25;;;;;;;22.30;18.60;;;;;;;-6.75;100.00;95868.94;5055751;28;20331;-72
2022/12/13 06:53:51;;;;;;;17.57;13.80;;;;;;;-6.78;100.00;95870.03;5037731;28;20215;-72
2022/12/13 06:56:17;;;;;;;17.10;12.53;;;;;;;-6.73;100.00;95882.31;5056032;28;20190;-72
2022/12/13 06:58:42;;;;;;;16.67;13.97;;;;;;;-6.72;100.00;95881.38;5055565;28;20193;-72
2022/12/13 07:01:13;;;;;;;19.23;13.17;;;;;;;-6.77;100.00;95881.81;5055339;28;20194;-71
2022/12/13 07:03:39;;;;;;;18.70;14.10;;;;;;;-6.78;100.00;95887.84;5055550;28;20193;-72
2022/12/13 07:06:12;;;;;;;17.40;12.83;;;;;;;-6.76;100.00;95887.72;5055672;28;20185;-73
2022/12/13 07:08:39;;;;;;;17.87;13.47;;;;;;;-6.67;100.00;95888.59;5056676;28;20177;-77
2022/12/13 07:11:04;;;;;;;16.33;14.33;;;;;;;-6.75;100.00;95879.13;5055668;28;20182;-77
2022/12/13 07:13:30;;;;;;;19.17;13.20;;;;;;;-6.77;100.00;95886.91;5055621;28;20259;-77
2022/12/13 07:15:55;;;;;;;20.47;13.47;;;;;;;-6.75;100.00;95890.13;5064501;28;20200;-76
2022/12/13 07:18:21;;;;;;;21.80;14.20;;;;;;;-6.78;100.00;95895.50;5056235;28;20190;-75
2022/12/13 07:20:47;;;;;;;24.90;15.80;;;;;;;-6.73;100.00;95895.06;5038652;28;20190;-75
2022/12/13 07:23:12;;;;;;;25.10;16.40;;;;;;;-6.66;100.00;95901.19;5037639;28;20197;-75
2022/12/13 07:25:38;;;;;;;29.50;16.37;;;;;;;-6.63;100.00;95900.13;5037007;28;20698;-76
2022/12/13 07:28:06;;;;;;;21.20;15.33;;;;;;;-6.61;100.00;95890.56;5054637;28;20186;-76
2022/12/13 07:30:35;;;;;;;22.00;15.67;;;;;;;-6.64;100.00;95895.97;5043053;28;20198;-73
2022/12/13 07:33:02;;;;;;;20.87;14.37;;;;;;;-6.66;100.00;95900.41;5052314;28;20225;-74
2022/12/13 07:35:28;;;;;;;26.40;17.63;;;;;;;-6.55;100.00;95893.34;5055191;28;20627;-76
2022/12/13 07:37:53;;;;;;;24.23;19.23;;;;;;;-6.61;100.00;95890.56;5055458;28;20587;-74
2022/12/13 07:40:19;;;;;;;22.43;14.30;;;;;;;-6.38;100.00;95897.69;5054591;28;20197;-73
2022/12/13 07:42:55;;;;;;;20.83;15.33;;;;;;;-6.45;100.00;95900.94;5070658;28;20204;-73
2022/12/13 07:45:21;;;;;;;20.87;16.17;;;;;;;-6.49;100.00;95900.44;5053941;28;20198;-74
2022/12/13 07:47:48;;;;;;;19.43;14.57;;;;;;;-6.51;100.00;95906.59;5057804;28;20218;-73
2022/12/13 07:50:14;;;;;;;22.87;14.60;;;;;;;-6.16;100.00;95914.28;5062465;28;20177;-76
2022/12/13 07:52:39;;;;;;;17.37;14.13;;;;;;;-6.10;99.60;95910.38;5058462;28;20182;-78
2022/12/13 07:55:06;;;;;;;17.43;12.90;;;;;;;-6.25;99.11;95919.47;5075692;28;20182;-73
2022/12/13 07:57:31;;;;;;;19.33;13.37;;;;;;;-6.31;99.72;95919.09;5074617;28;20203;-74
2022/12/13 07:59:57;;;;;;;16.37;12.93;;;;;;;-6.31;99.62;95916.56;5056897;28;20193;-75
2022/12/13 08:02:23;;;;;;;21.40;15.23;;;;;;;-6.26;99.89;95925.50;5073914;28;20174;-74
2022/12/13 08:04:49;;;;;;;25.90;15.13;;;;;;;-6.42;100.00;95923.59;5069226;28;20201;-73
2022/12/13 08:07:14;;;;;;;19.70;15.27;;;;;;;-6.39;100.00;95929.22;5076206;28;20192;-73
2022/12/13 08:09:39;;;;;;;19.80;13.87;;;;;;;-6.24;99.78;95928.72;5064731;28;20188;-75
2022/12/13 08:12:05;;;;;;;26.90;15.13;;;;;;;-6.28;99.74;95918.00;5054908;28;20244;-73
2022/12/13 08:14:30;;;;;;;20.97;14.93;;;;;;;-6.11;98.46;95919.75;5071290;28;20177;-74
2022/12/13 08:16:56;;;;;;;20.07;14.13;;;;;;;-6.19;97.99;95921.44;5074369;28;20181;-74
2022/12/13 08:19:21;;;;;;;16.60;12.60;;;;;;;-6.29;98.52;95929.13;5074879;28;20192;-72
2022/12/13 08:21:47;;;;;;;19.87;13.53;;;;;;;-6.26;99.29;95931.41;5067263;28;20193;-74
2022/12/13 08:24:12;;;;;;;20.20;15.17;;;;;;;-6.19;98.46;95918.91;5072423;28;20194;-74
2022/12/13 08:26:37;;;;;;;19.30;14.97;;;;;;;-6.26;99.03;95923.75;5053694;28;20189;-75
2022/12/13 08:29:03;;;;;;;21.87;14.83;;;;;;;-6.24;99.13;95929.50;5054020;28;20178;-75
2022/12/13 08:31:29;;;;;;;20.20;15.50;;;;;;;-6.26;99.28;95928.06;5065996;28;20276;-75
2022/12/13 08:33:55;;;;;;;21.40;16.57;;;;;;;-6.15;99.56;95920.19;5067084;28;20181;-73
2022/12/13 08:36:23;;;;;;;22.67;16.00;;;;;;;-6.03;98.63;95914.75;5058920;28;20650;-74
2022/12/13 08:38:51;;;;;;;21.53;15.97;;;;;;;-6.02;98.34;95923.19;5054326;28;20186;-75
2022/12/13 08:41:17;;;;;;;19.53;14.90;;;;;;;-5.99;99.16;95926.25;5067513;28;20658;-74
2022/12/13 08:43:42;;;;;;;20.93;15.00;;;;;;;-5.97;98.46;95929.47;5071772;28;20193;-76
2022/12/13 08:46:08;;;;;;;21.33;14.73;;;;;;;-6.09;98.90;95917.88;5064444;28;20189;-78
2022/12/13 08:48:33;;;;;;;20.67;17.87;;;;;;;-6.15;99.60;95927.84;5058772;28;20224;-77
2022/12/13 08:51:05;;;;;;;26.33;17.23;;;;;;;-6.10;99.41;95931.56;5054881;28;20178;-78
2022/12/13 08:53:30;;;;;;;20.27;16.63;;;;;;;-6.02;98.48;95936.72;5061414;28;20622;-78
2022/12/13 08:56:01;;;;;;;21.33;15.47;;;;;;;-5.86;98.27;95933.50;5073764;28;20192;-77
2022/12/13 08:58:27;;;;;;;20.83;15.33;;;;;;;-6.01;97.98;95938.34;5060251;28;20201;-78
2022/12/13 09:00:52;;;;;;;22.63;16.43;;;;;;;-5.95;97.91;95942.06;5055774;28;20190;-78
2022/12/13 09:03:17;;;;;;;25.27;15.30;;;;;;;-5.86;97.87;95936.06;5035407;28;20539;-77
2022/12/13 09:05:43;;;;;;;21.90;15.07;;;;;;;-5.71;97.32;95931.22;5056013;28;20863;-76
2022/12/13 09:08:08;;;;;;;21.30;14.00;;;;;;;-5.57;96.33;95925.59;5073168;28;20603;-76
2022/12/13 09:10:34;;;;;;;25.27;22.60;;;;;;;-5.63;96.30;95914.22;5055457;28;20187;-77
2022/12/13 09:13:00;;;;;;;17.73;13.67;;;;;;;-5.49;95.43;95911.16;5073010;28;20237;-76
2022/12/13 09:15:26;;;;;;;66.80;61.60;;;;;;;-5.19;93.77;95916.78;5072974;28;20272;-77
2022/12/13 09:17:52;;;;;;;20.23;14.47;;;;;;;-5.20;94.00;95915.16;5073329;28;20298;-75
2022/12/13 09:20:17;;;;;;;21.63;14.87;;;;;;;-5.57;96.00;95913.63;5068492;28;20221;-75
2022/12/13 09:22:43;;;;;;;21.63;15.27;;;;;;;-5.30;94.36;95911.91;5057231;28;20188;-77
2022/12/13 09:25:08;;;;;;;21.50;14.10;;;;;;;-5.17;93.34;95920.75;5037553;28;20197;-76
2022/12/13 09:27:34;;;;;;;19.20;12.83;;;;;;;-5.30;94.33;95919.56;5072284;28;20209;-77
2022/12/13 09:30:00;;;;;;;21.40;14.47;;;;;;;-5.14;93.58;95915.38;5072902;28;20197;-77
2022/12/13 09:32:26;;;;;;;21.50;13.93;;;;;;;-5.06;92.36;95912.84;5073358;28;20170;-77
2022/12/13 09:34:52;;;;;;;18.93;13.27;;;;;;;-4.93;91.74;95912.44;5061688;28;20272;-78
2022/12/13 09:37:17;;;;;;;18.67;13.50;;;;;;;-4.98;91.86;95906.97;5062465;28;20219;-76
2022/12/13 09:39:43;;;;;;;19.67;14.40;;;;;;;-5.16;91.45;95919.00;5072944;28;20753;-77
2022/12/13 09:42:20;;;;;;;17.97;12.93;;;;;;;-5.09;92.17;95925.94;5072734;28;20695;-74
2022/12/13 09:44:51;;;;;;;18.37;13.53;;;;;;;-4.96;90.94;95920.41;5073116;28;20594;-76
2022/12/13 09:47:38;;;;;;;21.60;17.93;;;;;;;-4.88;90.45;95927.28;5073182;28;20637;-75
2022/12/13 09:50:08;;;;;;;22.20;14.10;;;;;;;-4.54;89.72;95925.53;5072915;28;20173;-76
2022/12/13 09:52:40;;;;;;;21.13;14.63;;;;;;;-4.43;89.91;95927.81;5073022;28;20189;-77
2022/12/13 09:55:24;;;;;;;24.40;15.87;;;;;;;-4.64;88.91;95928.22;5073878;28;20349;-76
2022/12/13 09:57:51;;;;;;;19.93;14.13;;;;;;;-4.66;89.13;95925.00;5073886;28;20173;-76
2022/12/13 10:00:19;;;;;;;18.37;13.73;;;;;;;-4.73;89.50;95924.00;5073172;28;20196;-76
2022/12/13 10:02:54;;;;;;;16.57;13.67;;;;;;;-4.52;88.95;95920.28;5073458;28;20183;-77
2022/12/13 10:05:26;;;;;;;19.57;13.07;;;;;;;-4.50;88.94;95924.25;5054810;28;20754;-76
2022/12/13 10:07:56;;;;;;;19.27;13.27;;;;;;;-4.20;88.90;95921.16;5072776;28;20173;-76
2022/12/13 10:10:21;;;;;;;22.00;14.90;;;;;;;-3.91;86.31;95918.16;5072264;28;20189;-76
2022/12/13 10:12:54;;;;;;;20.57;14.57;;;;;;;-4.01;86.38;95912.38;5072587;28;20173;-76
2022/12/13 10:15:21;;;;;;;21.77;16.73;;;;;;;-4.42;87.40;95901.28;5073017;28;20181;-75
2022/12/13 10:17:48;;;;;;;19.10;15.40;;;;;;;-4.05;87.32;95900.84;5072503;28;20178;-75
2022/12/13 10:20:18;;;;;;;22.17;15.33;;;;;;;-3.98;85.20;95898.47;5066665;28;20174;-74
2022/12/13 10:22:43;;;;;;;20.93;16.47;;;;;;;-4.22;85.87;95894.91;5070928;28;20189;-75
2022/12/13 10:25:09;;;;;;;20.97;13.67;;;;;;;-4.20;85.28;95895.56;5077947;28;20271;-74
2022/12/13 10:27:36;;;;;;;19.97;14.97;;;;;;;-4.35;86.62;95899.72;5038741;28;20181;-72
2022/12/13 10:30:23;;;;;;;18.47;13.77;;;;;;;-3.91;84.70;95892.56;5042933;28;20204;-74
2022/12/13 10:33:03;;;;;;;17.77;13.83;;;;;;;-3.96;85.76;95901.69;5072420;28;20172;-75
2022/12/13 10:35:37;;;;;;;16.73;13.17;;;;;;;-3.97;83.83;95898.31;5053441;28;20619;-75
2022/12/13 10:38:15;;;;;;;17.47;13.23;;;;;;;-4.19;83.76;95891.25;5058145;28;20244;-74
2022/12/13 10:40:47;;;;;;;20.67;14.80;;;;;;;-3.77;83.21;95883.44;5072147;28;20185;-74
2022/12/13 10:43:20;;;;;;;18.37;14.10;;;;;;;-3.77;83.37;95878.31;5072199;28;20197;-75
2022/12/13 10:45:57;;;;;;;18.10;13.43;;;;;;;-3.68;82.75;95874.81;5072372;28;20173;-74
2022/12/13 10:48:32;;;;;;;18.37;14.00;;;;;;;-3.48;82.10;95886.31;5071784;28;20251;-74
2022/12/13 10:51:03;;;;;;;18.63;12.70;;;;;;;-3.24;80.85;95882.13;5071797;28;20555;-74
2022/12/13 10:53:33;;;;;;;22.70;13.33;;;;;;;-3.17;80.35;95872.78;5075787;28;20225;-74
2022/12/13 10:55:59;;;;;;;14.40;11.77;;;;;;;-3.25;78.34;95872.81;5077505;28;20216;-76
2022/12/13 10:58:43;;;;;;;17.43;12.47;;;;;;;-3.38;78.25;95870.75;5072153;28;20190;-74
2022/12/13 11:01:18;;;;;;;19.23;11.07;;;;;;;-3.45;78.43;95875.72;5069855;28;20177;-74
2022/12/13 11:04:02;;;;;;;15.40;10.93;;;;;;;-3.29;78.69;95874.13;5069943;28;20286;-75
2022/12/13 11:06:40;;;;;;;14.40;11.37;;;;;;;-3.29;78.15;95877.50;5092279;28;20172;-75
2022/12/13 11:09:22;;;;;;;17.47;10.80;;;;;;;-3.13;77.35;95867.19;5073013;28;20224;-74
2022/12/13 11:11:50;;;;;;;15.07;12.47;;;;;;;-3.49;78.17;95869.34;5051664;28;20162;-74
2022/12/13 11:14:19;;;;;;;16.80;14.23;;;;;;;-3.44;78.19;95866.28;5055563;28;20181;-74
2022/12/13 11:16:53;;;;;;;19.57;14.77;;;;;;;-3.09;76.58;95865.09;5070128;28;20196;-74
2022/12/13 11:19:42;;;;;;;18.13;14.23;;;;;;;-3.37;77.52;95867.25;5070306;28;20169;-75